Esperanza — PD6464 — position and weather

sailwx.info

Track history (hours):
 
Tides and Currents Weather Stations Pressure Air Temp Water Temp Dewpoint Dewpoint Depression Visibility Wind Speed Wind Dir Waves Ship Positions

Esperanza

Last reported at 2016-Apr-06 12:00 UTC. Time now 2016-Apr-29 03:58 UTC.
Position S 27°06' E 033°12'.
Warning: this ship's position is 22 days out of date.

Length 72 m; draft 4.7 m.

Type: Other ship. MMSI: 244690000.

Wind from 170 at 38 knots

Waves 2.5 meters (8 feet), 99 second period

Barometer 1023.9 mb
Air temperature 25.0 ° C
Visibility: greater than 2.2 NM
Dewpoint 20.4 ° C

Date/timePositionNaut miles runAvg speedWind from/ knotsBaromVisibWave heightAir tempDewpointWater temp
2016-Apr-06 12:00S 27°06' E 033°12'76 6.3 170 / 381023.9 2.2 2.525.020.4
2016-Apr-06 00:00S 28°12' E 032°30'84 7.3 220 / 401017.6 5.4 1.022.020.5
2016-Apr-05 12:24S 29°28' E 031°50'7 8.6
2016-Apr-05 11:33S 29°34' E 031°44'9 9.3
2016-Apr-05 10:33S 29°41' E 031°38'9 9.3
2016-Apr-05 09:33S 29°48' E 031°30'10 9.5
2016-Apr-05 08:33S 29°55' E 031°23'10 9.5
2016-Apr-05 07:33S 30°03' E 031°16'10 9.5
2016-Apr-05 06:33S 30°10' E 031°09'9 9.5
2016-Apr-05 05:33S 30°17' E 031°02'9 8.7
2016-Apr-05 04:33S 30°24' E 030°56'13 8.5
2016-Apr-05 03:03S 30°34' E 030°47'4 8.6
2016-Apr-05 02:32S 30°38' E 030°44'  
2016-Apr-01 09:31S 34°12' E 018°16'11 9.6
2016-Apr-01 08:22S 34°01' E 018°13'7 9.1
2016-Apr-01 07:33S 33°54' E 018°17'7 7.5
2016-Apr-01 06:33S 33°52' E 018°26'2 2.2
2016-Apr-01 05:31S 33°54' E 018°27'0 0.0
2016-Apr-01 04:31S 33°54' E 018°27'0 0.0
2016-Apr-01 03:31S 33°54' E 018°27'0 0.0
2016-Apr-01 02:31S 33°54' E 018°27'0 0.0
2016-Apr-01 01:31S 33°54' E 018°27'0 0.0
2016-Apr-01 00:31S 33°54' E 018°27'0 0.0
2016-Mar-31 23:31S 33°54' E 018°27'0 0.0
2016-Mar-31 22:31S 33°54' E 018°27'0 0.0
2016-Mar-31 21:31S 33°54' E 018°27'0 0.0
2016-Mar-31 20:31S 33°54' E 018°27'0 0.0
2016-Mar-31 19:31S 33°54' E 018°27'0 0.0
2016-Mar-31 18:31S 33°54' E 018°27'0 0.0
2016-Mar-31 17:31S 33°54' E 018°27'0 0.0
2016-Mar-31 16:31S 33°54' E 018°27'0 0.0
2016-Mar-31 15:31S 33°54' E 018°27'0 0.0
2016-Mar-31 14:31S 33°54' E 018°27'0 0.0
2016-Mar-31 13:31S 33°54' E 018°27'0 0.0
2016-Mar-31 12:31S 33°54' E 018°27'0 0.0
2016-Mar-31 11:31S 33°54' E 018°27'0 0.0
2016-Mar-31 10:31S 33°54' E 018°27'1 1.5
2016-Mar-31 09:33S 33°55' E 018°27'0 0.0
2016-Mar-31 08:33S 33°55' E 018°27'0 0.0
2016-Mar-31 07:33S 33°55' E 018°27'  
Track history (hours):
 
Tides and Currents Weather Stations Pressure Air Temp Water Temp Dewpoint Dewpoint Depression Visibility Wind Speed Wind Dir Waves Ship Positions

Esperanza

Last reported at 2016-Apr-06 12:00 UTC. Time now 2016-Apr-29 03:58 UTC.
Position S 27°06' E 033°12'.
Warning: this ship's position is 22 days out of date.

Length 72 m; draft 4.7 m.

Type: Other ship. MMSI: 244690000.

Wind from 170 at 38 knots

Waves 2.5 meters (8 feet), 99 second period

Barometer 1023.9 mb
Air temperature 25.0 ° C
Visibility: greater than 2.2 NM
Dewpoint 20.4 ° C

Date/timePositionNaut miles runAvg speedWind from/ knotsBaromVisibWave heightAir tempDewpointWater temp
2016-Apr-06 12:00S 27°06' E 033°12'76 6.3 170 / 381023.9 2.2 2.525.020.4
2016-Apr-06 00:00S 28°12' E 032°30'84 7.3 220 / 401017.6 5.4 1.022.020.5
2016-Apr-05 12:24S 29°28' E 031°50'7 8.6
2016-Apr-05 11:33S 29°34' E 031°44'9 9.3
2016-Apr-05 10:33S 29°41' E 031°38'9 9.3
2016-Apr-05 09:33S 29°48' E 031°30'10 9.5
2016-Apr-05 08:33S 29°55' E 031°23'10 9.5
2016-Apr-05 07:33S 30°03' E 031°16'10 9.5
2016-Apr-05 06:33S 30°10' E 031°09'9 9.5
2016-Apr-05 05:33S 30°17' E 031°02'9 8.7
2016-Apr-05 04:33S 30°24' E 030°56'13 8.5
2016-Apr-05 03:03S 30°34' E 030°47'4 8.6
2016-Apr-05 02:32S 30°38' E 030°44'  
2016-Apr-01 09:31S 34°12' E 018°16'11 9.6
2016-Apr-01 08:22S 34°01' E 018°13'7 9.1
2016-Apr-01 07:33S 33°54' E 018°17'7 7.5
2016-Apr-01 06:33S 33°52' E 018°26'2 2.2
2016-Apr-01 05:31S 33°54' E 018°27'0 0.0
2016-Apr-01 04:31S 33°54' E 018°27'0 0.0
2016-Apr-01 03:31S 33°54' E 018°27'0 0.0
2016-Apr-01 02:31S 33°54' E 018°27'0 0.0
2016-Apr-01 01:31S 33°54' E 018°27'0 0.0
2016-Apr-01 00:31S 33°54' E 018°27'0 0.0
2016-Mar-31 23:31S 33°54' E 018°27'0 0.0
2016-Mar-31 22:31S 33°54' E 018°27'0 0.0
2016-Mar-31 21:31S 33°54' E 018°27'0 0.0
2016-Mar-31 20:31S 33°54' E 018°27'0 0.0
2016-Mar-31 19:31S 33°54' E 018°27'0 0.0
2016-Mar-31 18:31S 33°54' E 018°27'0 0.0
2016-Mar-31 17:31S 33°54' E 018°27'0 0.0
2016-Mar-31 16:31S 33°54' E 018°27'0 0.0
2016-Mar-31 15:31S 33°54' E 018°27'0 0.0
2016-Mar-31 14:31S 33°54' E 018°27'0 0.0
2016-Mar-31 13:31S 33°54' E 018°27'0 0.0
2016-Mar-31 12:31S 33°54' E 018°27'0 0.0
2016-Mar-31 11:31S 33°54' E 018°27'0 0.0
2016-Mar-31 10:31S 33°54' E 018°27'1 1.5
2016-Mar-31 09:33S 33°55' E 018°27'0 0.0
2016-Mar-31 08:33S 33°55' E 018°27'0 0.0
2016-Mar-31 07:33S 33°55' E 018°27'  

Dump ship's entire track history